sensor_id;sensor_type;location;lat;lon;timestamp;temperature;humidity
22364;DHT22;11349;53.412;-1.328;2022-08-25T00:00:00;18.80;99.90
22364;DHT22;11349;53.412;-1.328;2022-08-25T00:02:26;18.80;99.90
22364;DHT22;11349;53.412;-1.328;2022-08-25T00:04:52;18.80;99.90
22364;DHT22;11349;53.412;-1.328;2022-08-25T00:07:17;18.90;99.90
22364;DHT22;11349;53.412;-1.328;2022-08-25T00:09:43;18.80;99.90
22364;DHT22;11349;53.412;-1.328;2022-08-25T00:12:11;18.80;99.90
22364;DHT22;11349;53.412;-1.328;2022-08-25T00:14:37;18.70;99.90
22364;DHT22;11349;53.412;-1.328;2022-08-25T00:17:04;18.70;99.90
22364;DHT22;11349;53.412;-1.328;2022-08-25T00:19:33;18.60;99.90
22364;DHT22;11349;53.412;-1.328;2022-08-25T00:22:00;18.80;99.90
22364;DHT22;11349;53.412;-1.328;2022-08-25T00:24:27;18.80;99.90
22364;DHT22;11349;53.412;-1.328;2022-08-25T00:26:54;18.80;99.90
22364;DHT22;11349;53.412;-1.328;2022-08-25T00:29:22;18.70;99.90
22364;DHT22;11349;53.412;-1.328;2022-08-25T00:31:50;18.70;99.90
22364;DHT22;11349;53.412;-1.328;2022-08-25T00:34:22;18.70;99.90
22364;DHT22;11349;53.412;-1.328;2022-08-25T00:36:49;18.70;99.90
22364;DHT22;11349;53.412;-1.328;2022-08-25T00:39:17;18.60;99.90
22364;DHT22;11349;53.412;-1.328;2022-08-25T00:41:47;18.60;99.90
22364;DHT22;11349;53.412;-1.328;2022-08-25T00:44:13;18.50;99.90
22364;DHT22;11349;53.412;-1.328;2022-08-25T00:46:50;18.60;99.90
22364;DHT22;11349;53.412;-1.328;2022-08-25T00:49:24;18.60;99.90
22364;DHT22;11349;53.412;-1.328;2022-08-25T00:51:56;18.60;99.90
22364;DHT22;11349;53.412;-1.328;2022-08-25T00:54:32;18.60;99.90
22364;DHT22;11349;53.412;-1.328;2022-08-25T00:57:00;18.50;99.90
22364;DHT22;11349;53.412;-1.328;2022-08-25T00:59:28;18.40;99.90
22364;DHT22;11349;53.412;-1.328;2022-08-25T01:01:55;18.40;99.90
22364;DHT22;11349;53.412;-1.328;2022-08-25T01:04:21;18.40;99.90
22364;DHT22;11349;53.412;-1.328;2022-08-25T01:06:48;18.40;99.90
22364;DHT22;11349;53.412;-1.328;2022-08-25T01:09:15;18.30;99.90
22364;DHT22;11349;53.412;-1.328;2022-08-25T01:11:43;18.40;99.90
22364;DHT22;11349;53.412;-1.328;2022-08-25T01:14:12;18.40;99.90
22364;DHT22;11349;53.412;-1.328;2022-08-25T01:16:39;18.30;99.90
22364;DHT22;11349;53.412;-1.328;2022-08-25T01:19:07;18.30;99.90
22364;DHT22;11349;53.412;-1.328;2022-08-25T01:21:44;18.30;99.90
22364;DHT22;11349;53.412;-1.328;2022-08-25T01:24:36;18.30;99.90
22364;DHT22;11349;53.412;-1.328;2022-08-25T01:26:59;18.30;99.90
22364;DHT22;11349;53.412;-1.328;2022-08-25T01:29:26;18.20;99.90
22364;DHT22;11349;53.412;-1.328;2022-08-25T01:31:59;18.20;99.90
22364;DHT22;11349;53.412;-1.328;2022-08-25T01:34:27;18.20;99.90
22364;DHT22;11349;53.412;-1.328;2022-08-25T01:36:54;18.20;99.90
22364;DHT22;11349;53.412;-1.328;2022-08-25T01:39:20;18.20;99.90
22364;DHT22;11349;53.412;-1.328;2022-08-25T01:42:08;18.20;99.90
22364;DHT22;11349;53.412;-1.328;2022-08-25T01:44:42;18.10;99.90
22364;DHT22;11349;53.412;-1.328;2022-08-25T01:47:10;18.10;99.90
22364;DHT22;11349;53.412;-1.328;2022-08-25T01:49:36;18.10;99.90
22364;DHT22;11349;53.412;-1.328;2022-08-25T01:52:19;18.10;99.90
22364;DHT22;11349;53.412;-1.328;2022-08-25T01:54:45;18.10;99.90
22364;DHT22;11349;53.412;-1.328;2022-08-25T01:57:10;18.00;99.90
22364;DHT22;11349;53.412;-1.328;2022-08-25T01:59:36;18.00;99.90
22364;DHT22;11349;53.412;-1.328;2022-08-25T02:02:03;18.00;99.90
22364;DHT22;11349;53.412;-1.328;2022-08-25T02:04:29;18.00;99.90
22364;DHT22;11349;53.412;-1.328;2022-08-25T02:07:01;17.90;99.90
22364;DHT22;11349;53.412;-1.328;2022-08-25T02:09:28;17.80;99.90
22364;DHT22;11349;53.412;-1.328;2022-08-25T02:11:54;17.80;99.90
22364;DHT22;11349;53.412;-1.328;2022-08-25T02:14:21;17.80;99.90
22364;DHT22;11349;53.412;-1.328;2022-08-25T02:16:50;17.70;99.90
22364;DHT22;11349;53.412;-1.328;2022-08-25T02:19:17;17.70;99.90
22364;DHT22;11349;53.412;-1.328;2022-08-25T02:21:43;17.60;99.90
22364;DHT22;11349;53.412;-1.328;2022-08-25T02:24:10;17.70;99.90
22364;DHT22;11349;53.412;-1.328;2022-08-25T02:26:37;17.60;99.90
22364;DHT22;11349;53.412;-1.328;2022-08-25T02:29:04;17.50;99.90
22364;DHT22;11349;53.412;-1.328;2022-08-25T02:31:30;17.50;99.90
22364;DHT22;11349;53.412;-1.328;2022-08-25T02:33:56;17.60;99.90
22364;DHT22;11349;53.412;-1.328;2022-08-25T02:36:22;17.50;99.90
22364;DHT22;11349;53.412;-1.328;2022-08-25T02:38:48;17.40;99.90
22364;DHT22;11349;53.412;-1.328;2022-08-25T02:41:21;17.40;99.90
22364;DHT22;11349;53.412;-1.328;2022-08-25T02:43:49;17.30;99.90
22364;DHT22;11349;53.412;-1.328;2022-08-25T02:46:17;17.30;99.90
22364;DHT22;11349;53.412;-1.328;2022-08-25T02:48:44;17.40;99.90
22364;DHT22;11349;53.412;-1.328;2022-08-25T02:51:11;17.40;99.90
22364;DHT22;11349;53.412;-1.328;2022-08-25T02:53:38;17.40;99.90
22364;DHT22;11349;53.412;-1.328;2022-08-25T02:56:06;17.30;99.90
22364;DHT22;11349;53.412;-1.328;2022-08-25T02:58:32;17.30;99.90
22364;DHT22;11349;53.412;-1.328;2022-08-25T03:00:57;17.30;99.90
22364;DHT22;11349;53.412;-1.328;2022-08-25T03:03:23;17.40;99.90
22364;DHT22;11349;53.412;-1.328;2022-08-25T03:05:49;17.30;99.90
22364;DHT22;11349;53.412;-1.328;2022-08-25T03:08:14;17.30;99.90
22364;DHT22;11349;53.412;-1.328;2022-08-25T03:10:40;17.40;99.90
22364;DHT22;11349;53.412;-1.328;2022-08-25T03:13:06;17.40;99.90
22364;DHT22;11349;53.412;-1.328;2022-08-25T03:15:32;17.30;99.90
22364;DHT22;11349;53.412;-1.328;2022-08-25T03:17:58;17.30;99.90
22364;DHT22;11349;53.412;-1.328;2022-08-25T03:20:25;17.30;99.90
22364;DHT22;11349;53.412;-1.328;2022-08-25T03:22:52;17.20;99.90
22364;DHT22;11349;53.412;-1.328;2022-08-25T03:25:18;17.20;99.90
22364;DHT22;11349;53.412;-1.328;2022-08-25T03:28:03;17.20;99.90
22364;DHT22;11349;53.412;-1.328;2022-08-25T03:30:30;17.20;99.90
22364;DHT22;11349;53.412;-1.328;2022-08-25T03:32:56;17.20;99.90
22364;DHT22;11349;53.412;-1.328;2022-08-25T03:35:22;17.20;99.90
22364;DHT22;11349;53.412;-1.328;2022-08-25T03:37:48;17.20;99.90
22364;DHT22;11349;53.412;-1.328;2022-08-25T03:40:15;17.20;99.90
22364;DHT22;11349;53.412;-1.328;2022-08-25T03:42:43;17.20;99.90
22364;DHT22;11349;53.412;-1.328;2022-08-25T03:45:11;17.00;99.90
22364;DHT22;11349;53.412;-1.328;2022-08-25T03:47:38;17.00;99.90
22364;DHT22;11349;53.412;-1.328;2022-08-25T03:50:06;17.10;99.90
22364;DHT22;11349;53.412;-1.328;2022-08-25T03:52:33;17.10;99.90
22364;DHT22;11349;53.412;-1.328;2022-08-25T03:54:59;17.10;99.90
22364;DHT22;11349;53.412;-1.328;2022-08-25T03:57:26;17.10;99.90
22364;DHT22;11349;53.412;-1.328;2022-08-25T03:59:52;17.10;99.90
22364;DHT22;11349;53.412;-1.328;2022-08-25T04:02:17;17.10;99.90
22364;DHT22;11349;53.412;-1.328;2022-08-25T04:04:43;17.00;99.90
22364;DHT22;11349;53.412;-1.328;2022-08-25T04:07:09;17.00;99.90
22364;DHT22;11349;53.412;-1.328;2022-08-25T04:09:35;17.00;99.90
22364;DHT22;11349;53.412;-1.328;2022-08-25T04:12:01;17.00;99.90
22364;DHT22;11349;53.412;-1.328;2022-08-25T04:14:26;17.00;99.90
22364;DHT22;11349;53.412;-1.328;2022-08-25T04:16:52;17.00;99.90
22364;DHT22;11349;53.412;-1.328;2022-08-25T04:19:18;16.90;99.90
22364;DHT22;11349;53.412;-1.328;2022-08-25T04:21:45;16.90;99.90
22364;DHT22;11349;53.412;-1.328;2022-08-25T04:24:12;16.80;99.90
22364;DHT22;11349;53.412;-1.328;2022-08-25T04:26:42;16.80;99.90
22364;DHT22;11349;53.412;-1.328;2022-08-25T04:29:09;16.80;99.90
22364;DHT22;11349;53.412;-1.328;2022-08-25T04:31:37;16.80;99.90
22364;DHT22;11349;53.412;-1.328;2022-08-25T04:34:04;16.80;99.90
22364;DHT22;11349;53.412;-1.328;2022-08-25T04:36:32;16.80;99.90
22364;DHT22;11349;53.412;-1.328;2022-08-25T04:38:58;16.80;99.90
22364;DHT22;11349;53.412;-1.328;2022-08-25T04:41:24;16.90;99.90
22364;DHT22;11349;53.412;-1.328;2022-08-25T04:43:50;16.90;99.90
22364;DHT22;11349;53.412;-1.328;2022-08-25T04:46:24;16.90;99.90
22364;DHT22;11349;53.412;-1.328;2022-08-25T04:48:52;16.90;99.90
22364;DHT22;11349;53.412;-1.328;2022-08-25T04:51:20;16.80;99.90
22364;DHT22;11349;53.412;-1.328;2022-08-25T04:53:48;16.90;99.90
22364;DHT22;11349;53.412;-1.328;2022-08-25T04:56:17;16.80;99.90
22364;DHT22;11349;53.412;-1.328;2022-08-25T04:58:43;16.90;99.90
22364;DHT22;11349;53.412;-1.328;2022-08-25T05:01:14;16.80;99.90
22364;DHT22;11349;53.412;-1.328;2022-08-25T05:03:40;16.80;99.90
22364;DHT22;11349;53.412;-1.328;2022-08-25T05:06:07;16.80;99.90
22364;DHT22;11349;53.412;-1.328;2022-08-25T05:08:34;16.80;99.90
22364;DHT22;11349;53.412;-1.328;2022-08-25T05:11:12;16.80;99.90
22364;DHT22;11349;53.412;-1.328;2022-08-25T05:13:39;16.80;99.90
22364;DHT22;11349;53.412;-1.328;2022-08-25T05:16:05;16.80;99.90
22364;DHT22;11349;53.412;-1.328;2022-08-25T05:18:32;16.80;99.90
22364;DHT22;11349;53.412;-1.328;2022-08-25T05:21:06;16.70;99.90
22364;DHT22;11349;53.412;-1.328;2022-08-25T05:23:32;16.80;99.90
22364;DHT22;11349;53.412;-1.328;2022-08-25T05:26:19;16.80;99.90
22364;DHT22;11349;53.412;-1.328;2022-08-25T05:28:47;16.70;99.90
22364;DHT22;11349;53.412;-1.328;2022-08-25T05:31:13;16.70;99.90
22364;DHT22;11349;53.412;-1.328;2022-08-25T05:33:40;16.70;99.90
22364;DHT22;11349;53.412;-1.328;2022-08-25T05:36:08;16.70;99.90
22364;DHT22;11349;53.412;-1.328;2022-08-25T05:38:35;16.60;99.90
22364;DHT22;11349;53.412;-1.328;2022-08-25T05:41:04;16.70;99.90
22364;DHT22;11349;53.412;-1.328;2022-08-25T05:43:31;16.70;99.90
22364;DHT22;11349;53.412;-1.328;2022-08-25T05:45:57;16.70;99.90
22364;DHT22;11349;53.412;-1.328;2022-08-25T05:48:25;16.70;99.90
22364;DHT22;11349;53.412;-1.328;2022-08-25T05:50:56;16.70;99.90
22364;DHT22;11349;53.412;-1.328;2022-08-25T05:53:23;16.70;99.90
22364;DHT22;11349;53.412;-1.328;2022-08-25T05:55:50;16.70;99.90
22364;DHT22;11349;53.412;-1.328;2022-08-25T05:58:17;16.60;99.90
22364;DHT22;11349;53.412;-1.328;2022-08-25T06:00:44;16.70;99.90
22364;DHT22;11349;53.412;-1.328;2022-08-25T06:03:10;16.70;99.90
22364;DHT22;11349;53.412;-1.328;2022-08-25T06:05:35;16.70;99.90
22364;DHT22;11349;53.412;-1.328;2022-08-25T06:08:02;16.60;99.90
22364;DHT22;11349;53.412;-1.328;2022-08-25T06:10:28;16.60;99.90
22364;DHT22;11349;53.412;-1.328;2022-08-25T06:12:54;16.60;99.90
22364;DHT22;11349;53.412;-1.328;2022-08-25T06:15:21;16.70;99.90
22364;DHT22;11349;53.412;-1.328;2022-08-25T06:17:49;16.80;99.90
22364;DHT22;11349;53.412;-1.328;2022-08-25T06:20:18;16.70;99.90
22364;DHT22;11349;53.412;-1.328;2022-08-25T06:22:45;16.70;99.90
22364;DHT22;11349;53.412;-1.328;2022-08-25T06:25:12;16.70;99.90
22364;DHT22;11349;53.412;-1.328;2022-08-25T06:27:39;16.80;99.90
22364;DHT22;11349;53.412;-1.328;2022-08-25T06:30:07;16.80;99.90
22364;DHT22;11349;53.412;-1.328;2022-08-25T06:32:35;16.80;99.90
22364;DHT22;11349;53.412;-1.328;2022-08-25T06:35:05;16.90;99.90
22364;DHT22;11349;53.412;-1.328;2022-08-25T06:37:32;16.90;99.90
22364;DHT22;11349;53.412;-1.328;2022-08-25T06:39:58;16.90;99.90
22364;DHT22;11349;53.412;-1.328;2022-08-25T06:42:24;16.90;99.90
22364;DHT22;11349;53.412;-1.328;2022-08-25T06:44:49;16.90;99.90
22364;DHT22;11349;53.412;-1.328;2022-08-25T06:47:16;16.90;99.90
22364;DHT22;11349;53.412;-1.328;2022-08-25T06:49:43;16.90;99.90
22364;DHT22;11349;53.412;-1.328;2022-08-25T06:52:09;16.90;99.90
22364;DHT22;11349;53.412;-1.328;2022-08-25T06:54:35;16.90;99.90
22364;DHT22;11349;53.412;-1.328;2022-08-25T06:57:03;16.90;99.90
22364;DHT22;11349;53.412;-1.328;2022-08-25T06:59:29;16.90;99.90
22364;DHT22;11349;53.412;-1.328;2022-08-25T07:01:55;16.90;99.90
22364;DHT22;11349;53.412;-1.328;2022-08-25T07:04:21;16.90;99.90
22364;DHT22;11349;53.412;-1.328;2022-08-25T07:06:47;17.00;99.90
22364;DHT22;11349;53.412;-1.328;2022-08-25T07:09:13;17.00;99.90
22364;DHT22;11349;53.412;-1.328;2022-08-25T07:11:41;17.00;99.90
22364;DHT22;11349;53.412;-1.328;2022-08-25T07:14:09;17.10;99.90
22364;DHT22;11349;53.412;-1.328;2022-08-25T07:16:36;17.00;99.90
22364;DHT22;11349;53.412;-1.328;2022-08-25T07:19:03;17.10;99.90
22364;DHT22;11349;53.412;-1.328;2022-08-25T07:21:32;17.10;99.90
22364;DHT22;11349;53.412;-1.328;2022-08-25T07:23:58;17.10;99.90
22364;DHT22;11349;53.412;-1.328;2022-08-25T07:26:29;17.00;99.90
22364;DHT22;11349;53.412;-1.328;2022-08-25T07:28:56;17.00;99.90
22364;DHT22;11349;53.412;-1.328;2022-08-25T07:31:23;17.10;99.90
22364;DHT22;11349;53.412;-1.328;2022-08-25T07:33:49;17.10;99.90
22364;DHT22;11349;53.412;-1.328;2022-08-25T07:36:34;17.10;99.90
22364;DHT22;11349;53.412;-1.328;2022-08-25T07:39:00;17.10;99.90
22364;DHT22;11349;53.412;-1.328;2022-08-25T07:41:36;17.10;99.90
22364;DHT22;11349;53.412;-1.328;2022-08-25T07:44:03;17.10;99.90
22364;DHT22;11349;53.412;-1.328;2022-08-25T07:46:29;17.10;99.90
22364;DHT22;11349;53.412;-1.328;2022-08-25T07:48:55;17.10;99.90
22364;DHT22;11349;53.412;-1.328;2022-08-25T07:51:21;17.20;99.90
22364;DHT22;11349;53.412;-1.328;2022-08-25T07:53:47;17.20;99.90
22364;DHT22;11349;53.412;-1.328;2022-08-25T07:56:14;17.20;99.90
22364;DHT22;11349;53.412;-1.328;2022-08-25T07:58:41;17.20;99.90
22364;DHT22;11349;53.412;-1.328;2022-08-25T08:01:13;17.20;99.90
22364;DHT22;11349;53.412;-1.328;2022-08-25T08:03:40;17.20;99.90
22364;DHT22;11349;53.412;-1.328;2022-08-25T08:06:09;17.20;99.90
22364;DHT22;11349;53.412;-1.328;2022-08-25T08:08:37;17.20;99.90
22364;DHT22;11349;53.412;-1.328;2022-08-25T08:11:04;17.20;99.90
22364;DHT22;11349;53.412;-1.328;2022-08-25T08:13:32;17.20;99.90
22364;DHT22;11349;53.412;-1.328;2022-08-25T08:15:58;17.30;99.90
22364;DHT22;11349;53.412;-1.328;2022-08-25T08:18:24;17.30;99.90
22364;DHT22;11349;53.412;-1.328;2022-08-25T08:20:50;17.30;99.90
22364;DHT22;11349;53.412;-1.328;2022-08-25T08:23:16;17.20;99.90
22364;DHT22;11349;53.412;-1.328;2022-08-25T08:25:42;17.20;99.90
22364;DHT22;11349;53.412;-1.328;2022-08-25T08:28:08;17.30;99.90
22364;DHT22;11349;53.412;-1.328;2022-08-25T08:30:35;17.20;99.90
22364;DHT22;11349;53.412;-1.328;2022-08-25T08:33:01;17.20;99.90
22364;DHT22;11349;53.412;-1.328;2022-08-25T08:35:27;17.20;99.90
22364;DHT22;11349;53.412;-1.328;2022-08-25T08:37:53;17.30;99.90
22364;DHT22;11349;53.412;-1.328;2022-08-25T08:40:19;17.30;99.90
22364;DHT22;11349;53.412;-1.328;2022-08-25T08:42:49;17.30;99.90
22364;DHT22;11349;53.412;-1.328;2022-08-25T08:45:37;17.30;99.90
22364;DHT22;11349;53.412;-1.328;2022-08-25T08:53:55;17.30;99.90
22364;DHT22;11349;53.412;-1.328;2022-08-25T08:56:35;17.30;99.90
22364;DHT22;11349;53.412;-1.328;2022-08-25T08:59:09;17.30;99.90
22364;DHT22;11349;53.412;-1.328;2022-08-25T09:01:46;17.30;99.90
22364;DHT22;11349;53.412;-1.328;2022-08-25T09:04:19;17.40;99.90
22364;DHT22;11349;53.412;-1.328;2022-08-25T09:06:51;17.40;99.90
22364;DHT22;11349;53.412;-1.328;2022-08-25T09:09:26;17.40;99.90
22364;DHT22;11349;53.412;-1.328;2022-08-25T09:12:01;17.30;99.90
22364;DHT22;11349;53.412;-1.328;2022-08-25T09:17:18;17.30;99.90
22364;DHT22;11349;53.412;-1.328;2022-08-25T09:20:32;17.30;99.90
22364;DHT22;11349;53.412;-1.328;2022-08-25T09:23:45;17.30;99.90
22364;DHT22;11349;53.412;-1.328;2022-08-25T09:28:53;17.40;99.90
22364;DHT22;11349;53.412;-1.328;2022-08-25T09:31:33;17.40;99.90
22364;DHT22;11349;53.412;-1.328;2022-08-25T09:34:04;17.50;99.90
22364;DHT22;11349;53.412;-1.328;2022-08-25T09:36:30;17.50;99.90
22364;DHT22;11349;53.412;-1.328;2022-08-25T09:38:59;17.50;99.90
22364;DHT22;11349;53.412;-1.328;2022-08-25T09:41:56;17.40;99.90
22364;DHT22;11349;53.412;-1.328;2022-08-25T09:44:43;17.40;99.90
22364;DHT22;11349;53.412;-1.328;2022-08-25T09:47:22;17.40;99.90
22364;DHT22;11349;53.412;-1.328;2022-08-25T09:50:00;17.40;99.90
22364;DHT22;11349;53.412;-1.328;2022-08-25T09:55:22;17.40;99.90
22364;DHT22;11349;53.412;-1.328;2022-08-25T09:57:49;17.40;99.90
22364;DHT22;11349;53.412;-1.328;2022-08-25T10:00:32;17.40;99.90
22364;DHT22;11349;53.412;-1.328;2022-08-25T10:03:12;17.40;99.90
22364;DHT22;11349;53.412;-1.328;2022-08-25T10:08:37;17.30;99.90
22364;DHT22;11349;53.412;-1.328;2022-08-25T10:11:12;17.30;99.90
22364;DHT22;11349;53.412;-1.328;2022-08-25T10:13:48;17.30;99.90
22364;DHT22;11349;53.412;-1.328;2022-08-25T10:16:29;17.20;99.90
22364;DHT22;11349;53.412;-1.328;2022-08-25T10:19:11;17.20;99.90
22364;DHT22;11349;53.412;-1.328;2022-08-25T10:21:39;17.10;99.90
22364;DHT22;11349;53.412;-1.328;2022-08-25T10:24:10;17.10;99.90
22364;DHT22;11349;53.412;-1.328;2022-08-25T10:29:09;17.00;99.90
22364;DHT22;11349;53.412;-1.328;2022-08-25T10:31:51;16.90;99.90
22364;DHT22;11349;53.412;-1.328;2022-08-25T10:39:57;16.90;99.90
22364;DHT22;11349;53.412;-1.328;2022-08-25T10:42:42;16.80;99.90
22364;DHT22;11349;53.412;-1.328;2022-08-25T10:45:22;16.70;99.90
22364;DHT22;11349;53.412;-1.328;2022-08-25T10:50:58;16.80;99.90
22364;DHT22;11349;53.412;-1.328;2022-08-25T10:58:54;16.80;99.90
22364;DHT22;11349;53.412;-1.328;2022-08-25T11:07:08;16.50;99.90
22364;DHT22;11349;53.412;-1.328;2022-08-25T11:09:44;16.30;99.90
22364;DHT22;11349;53.412;-1.328;2022-08-25T11:12:42;16.40;99.90
22364;DHT22;11349;53.412;-1.328;2022-08-25T11:15:39;16.20;99.90
22364;DHT22;11349;53.412;-1.328;2022-08-25T11:18:10;16.30;99.90
22364;DHT22;11349;53.412;-1.328;2022-08-25T11:21:04;16.30;99.90
22364;DHT22;11349;53.412;-1.328;2022-08-25T11:23:40;16.20;99.90
22364;DHT22;11349;53.412;-1.328;2022-08-25T11:26:14;16.30;99.90
22364;DHT22;11349;53.412;-1.328;2022-08-25T11:29:02;16.30;99.90
22364;DHT22;11349;53.412;-1.328;2022-08-25T11:31:29;16.20;99.90
22364;DHT22;11349;53.412;-1.328;2022-08-25T11:34:00;16.20;99.90
22364;DHT22;11349;53.412;-1.328;2022-08-25T11:36:34;16.10;99.90
22364;DHT22;11349;53.412;-1.328;2022-08-25T11:55:19;16.00;99.90
22364;DHT22;11349;53.412;-1.328;2022-08-25T11:57:48;15.90;99.90
22364;DHT22;11349;53.412;-1.328;2022-08-25T12:00:35;15.90;99.90
22364;DHT22;11349;53.412;-1.328;2022-08-25T12:06:22;16.00;99.90
22364;DHT22;11349;53.412;-1.328;2022-08-25T12:30:12;16.10;99.90
22364;DHT22;11349;53.412;-1.328;2022-08-25T12:35:36;16.20;99.90
22364;DHT22;11349;53.412;-1.328;2022-08-25T12:41:07;16.30;99.90
22364;DHT22;11349;53.412;-1.328;2022-08-25T12:43:38;16.20;99.90
22364;DHT22;11349;53.412;-1.328;2022-08-25T12:49:03;16.30;99.90
22364;DHT22;11349;53.412;-1.328;2022-08-25T12:57:01;16.40;99.90
22364;DHT22;11349;53.412;-1.328;2022-08-25T12:59:37;16.50;99.90
22364;DHT22;11349;53.412;-1.328;2022-08-25T13:04:53;16.60;99.90
22364;DHT22;11349;53.412;-1.328;2022-08-25T13:07:57;16.60;99.90
22364;DHT22;11349;53.412;-1.328;2022-08-25T13:10:43;16.70;99.90
22364;DHT22;11349;53.412;-1.328;2022-08-25T13:16:15;16.80;99.90
22364;DHT22;11349;53.412;-1.328;2022-08-25T13:18:41;16.90;99.90
22364;DHT22;11349;53.412;-1.328;2022-08-25T13:21:17;16.80;99.90
22364;DHT22;11349;53.412;-1.328;2022-08-25T13:23:46;16.80;99.90
22364;DHT22;11349;53.412;-1.328;2022-08-25T13:26:22;16.80;99.90
22364;DHT22;11349;53.412;-1.328;2022-08-25T13:29:00;16.90;99.90
22364;DHT22;11349;53.412;-1.328;2022-08-25T13:31:27;16.90;99.90
22364;DHT22;11349;53.412;-1.328;2022-08-25T13:34:00;16.80;99.90
22364;DHT22;11349;53.412;-1.328;2022-08-25T13:36:29;16.90;99.90
22364;DHT22;11349;53.412;-1.328;2022-08-25T13:39:18;17.00;99.90
22364;DHT22;11349;53.412;-1.328;2022-08-25T13:41:47;17.10;99.90
22364;DHT22;11349;53.412;-1.328;2022-08-25T13:44:14;16.90;99.90
22364;DHT22;11349;53.412;-1.328;2022-08-25T13:46:41;16.90;99.90
22364;DHT22;11349;53.412;-1.328;2022-08-25T13:49:08;17.00;99.90
22364;DHT22;11349;53.412;-1.328;2022-08-25T13:51:35;16.90;99.90
22364;DHT22;11349;53.412;-1.328;2022-08-25T13:54:07;16.90;99.90
22364;DHT22;11349;53.412;-1.328;2022-08-25T13:56:35;16.80;99.90
22364;DHT22;11349;53.412;-1.328;2022-08-25T13:59:04;16.80;99.90
22364;DHT22;11349;53.412;-1.328;2022-08-25T14:01:43;16.80;99.90
22364;DHT22;11349;53.412;-1.328;2022-08-25T14:07:07;16.60;99.90
22364;DHT22;11349;53.412;-1.328;2022-08-25T14:09:48;16.60;99.90
22364;DHT22;11349;53.412;-1.328;2022-08-25T14:17:47;16.90;99.90
22364;DHT22;11349;53.412;-1.328;2022-08-25T14:20:23;17.00;99.90
22364;DHT22;11349;53.412;-1.328;2022-08-25T14:22:55;17.10;99.90
22364;DHT22;11349;53.412;-1.328;2022-08-25T14:25:23;17.20;99.90
22364;DHT22;11349;53.412;-1.328;2022-08-25T14:27:58;17.20;99.90
22364;DHT22;11349;53.412;-1.328;2022-08-25T14:30:24;17.50;99.90
22364;DHT22;11349;53.412;-1.328;2022-08-25T14:32:51;17.40;99.90
22364;DHT22;11349;53.412;-1.328;2022-08-25T14:35:17;17.60;99.90
22364;DHT22;11349;53.412;-1.328;2022-08-25T14:37:43;17.40;99.90
22364;DHT22;11349;53.412;-1.328;2022-08-25T14:40:10;17.60;99.90
22364;DHT22;11349;53.412;-1.328;2022-08-25T14:42:38;17.60;99.90
22364;DHT22;11349;53.412;-1.328;2022-08-25T14:45:05;17.60;99.90
22364;DHT22;11349;53.412;-1.328;2022-08-25T14:47:31;17.70;99.90
22364;DHT22;11349;53.412;-1.328;2022-08-25T14:49:57;17.60;99.90
22364;DHT22;11349;53.412;-1.328;2022-08-25T14:52:28;17.70;99.90
22364;DHT22;11349;53.412;-1.328;2022-08-25T14:54:55;17.80;99.90
22364;DHT22;11349;53.412;-1.328;2022-08-25T14:57:25;17.90;99.90
22364;DHT22;11349;53.412;-1.328;2022-08-25T14:59:51;17.90;99.90
22364;DHT22;11349;53.412;-1.328;2022-08-25T15:02:19;17.90;99.90
22364;DHT22;11349;53.412;-1.328;2022-08-25T15:05:05;17.90;99.90
22364;DHT22;11349;53.412;-1.328;2022-08-25T15:07:33;17.90;99.90
22364;DHT22;11349;53.412;-1.328;2022-08-25T15:10:17;17.90;99.90
22364;DHT22;11349;53.412;-1.328;2022-08-25T15:12:43;18.10;99.90
22364;DHT22;11349;53.412;-1.328;2022-08-25T15:15:10;18.10;99.90
22364;DHT22;11349;53.412;-1.328;2022-08-25T15:17:37;18.10;99.90
22364;DHT22;11349;53.412;-1.328;2022-08-25T15:20:03;18.10;99.90
22364;DHT22;11349;53.412;-1.328;2022-08-25T15:22:29;18.10;99.90
22364;DHT22;11349;53.412;-1.328;2022-08-25T15:24:55;18.20;99.90
22364;DHT22;11349;53.412;-1.328;2022-08-25T15:27:21;18.30;99.90
22364;DHT22;11349;53.412;-1.328;2022-08-25T15:29:47;18.30;99.90
22364;DHT22;11349;53.412;-1.328;2022-08-25T15:32:13;18.40;99.90
22364;DHT22;11349;53.412;-1.328;2022-08-25T15:34:39;18.60;99.90
22364;DHT22;11349;53.412;-1.328;2022-08-25T15:37:08;18.80;99.90
22364;DHT22;11349;53.412;-1.328;2022-08-25T15:39:35;18.70;99.90
22364;DHT22;11349;53.412;-1.328;2022-08-25T15:42:01;18.60;99.90
22364;DHT22;11349;53.412;-1.328;2022-08-25T15:44:27;18.50;99.90
22364;DHT22;11349;53.412;-1.328;2022-08-25T15:46:53;18.70;99.90
22364;DHT22;11349;53.412;-1.328;2022-08-25T15:49:19;18.80;99.90
22364;DHT22;11349;53.412;-1.328;2022-08-25T15:51:45;18.50;99.90
22364;DHT22;11349;53.412;-1.328;2022-08-25T15:54:11;18.50;99.90
22364;DHT22;11349;53.412;-1.328;2022-08-25T15:56:39;18.50;99.90
22364;DHT22;11349;53.412;-1.328;2022-08-25T15:59:05;18.40;99.90
22364;DHT22;11349;53.412;-1.328;2022-08-25T16:01:31;18.40;99.90
22364;DHT22;11349;53.412;-1.328;2022-08-25T16:03:57;18.50;99.90
22364;DHT22;11349;53.412;-1.328;2022-08-25T16:06:24;18.50;99.90
22364;DHT22;11349;53.412;-1.328;2022-08-25T16:08:51;18.50;99.90
22364;DHT22;11349;53.412;-1.328;2022-08-25T16:11:20;18.50;99.90
22364;DHT22;11349;53.412;-1.328;2022-08-25T16:13:46;18.50;99.90
22364;DHT22;11349;53.412;-1.328;2022-08-25T16:16:13;18.50;99.90
22364;DHT22;11349;53.412;-1.328;2022-08-25T16:18:40;18.80;99.90
22364;DHT22;11349;53.412;-1.328;2022-08-25T16:21:11;18.70;99.90
22364;DHT22;11349;53.412;-1.328;2022-08-25T16:23:37;18.50;99.90
22364;DHT22;11349;53.412;-1.328;2022-08-25T16:26:05;18.40;99.90
22364;DHT22;11349;53.412;-1.328;2022-08-25T16:28:37;18.40;99.90
22364;DHT22;11349;53.412;-1.328;2022-08-25T16:31:04;18.40;99.90
22364;DHT22;11349;53.412;-1.328;2022-08-25T16:33:30;18.30;99.90
22364;DHT22;11349;53.412;-1.328;2022-08-25T16:36:19;18.50;99.90
22364;DHT22;11349;53.412;-1.328;2022-08-25T16:38:46;18.90;99.90
22364;DHT22;11349;53.412;-1.328;2022-08-25T16:41:14;19.00;99.90
22364;DHT22;11349;53.412;-1.328;2022-08-25T16:43:41;19.20;99.90
22364;DHT22;11349;53.412;-1.328;2022-08-25T16:46:09;19.30;99.90
22364;DHT22;11349;53.412;-1.328;2022-08-25T16:48:36;19.30;99.90
22364;DHT22;11349;53.412;-1.328;2022-08-25T16:51:18;19.20;99.90
22364;DHT22;11349;53.412;-1.328;2022-08-25T16:53:44;19.30;99.90
22364;DHT22;11349;53.412;-1.328;2022-08-25T16:56:30;19.30;99.90
22364;DHT22;11349;53.412;-1.328;2022-08-25T16:58:58;19.20;99.90
22364;DHT22;11349;53.412;-1.328;2022-08-25T17:01:26;19.30;99.90
22364;DHT22;11349;53.412;-1.328;2022-08-25T17:03:54;19.30;99.90
22364;DHT22;11349;53.412;-1.328;2022-08-25T17:06:22;19.30;99.90
22364;DHT22;11349;53.412;-1.328;2022-08-25T17:08:48;19.40;99.90
22364;DHT22;11349;53.412;-1.328;2022-08-25T17:11:19;19.40;99.90
22364;DHT22;11349;53.412;-1.328;2022-08-25T17:13:48;19.30;99.90
22364;DHT22;11349;53.412;-1.328;2022-08-25T17:16:14;19.20;99.90
22364;DHT22;11349;53.412;-1.328;2022-08-25T17:18:41;19.30;99.90